Time;durP1;ratioP1;P1;durP2;ratioP2;P2;SDS_P1;SDS_P2;PMS_P1;PMS_P2;Temp;Humidity;BMP_temperature;BMP_pressure;BME280_temperature;BME280_humidity;BME280_pressure;Samples;Min_cycle;Max_cycle;Signal;HPM_P1;HPM_P2
2023/05/01 00:00:18;;;;;;;;;;;;;;;-142.75;100.00;77454.25;4992034;28;20429;-64
2023/05/01 00:02:43;;;;;;;;;;;;;;;-142.75;100.00;77466.03;4991729;28;20491;-64
2023/05/01 00:05:08;;;;;;;;;;;;;;;-142.75;100.00;77470.00;4992567;28;19951;-64
2023/05/01 00:07:34;;;;;;;;;;;;;;;-142.75;100.00;77487.72;4991073;28;19976;-64
2023/05/01 00:09:59;;;;;;;;;;;;;;;-142.75;100.00;77499.53;4992127;28;19920;-64
2023/05/01 00:12:25;;;;;;;;;;;;;;;-142.75;100.00;77479.84;4990289;28;19921;-64
2023/05/01 00:14:50;;;;;;;;;;;;;;;-142.75;100.00;77477.88;4993338;28;19920;-62
2023/05/01 00:17:16;;;;;;;;;;;;;;;-142.75;100.00;77475.91;4993143;28;20531;-65
2023/05/01 00:19:41;;;;;;;;;;;;;;;-142.75;100.00;77471.97;4991557;28;19914;-64
2023/05/01 00:22:06;;;;;;;;;;;;;;;-142.75;100.00;77468.03;4991941;28;19918;-63
2023/05/01 00:24:31;;;;;;;;;;;;;;;-142.75;100.00;77471.97;5006080;28;19913;-63
2023/05/01 00:26:57;;;;;;;;;;;;;;;-142.75;100.00;77470.00;4992296;28;19924;-64
2023/05/01 00:29:22;;;;;;;;;;;;;;;-142.75;100.00;77456.22;5004905;28;20298;-64
2023/05/01 00:31:47;;;;;;;;;;;;;;;-142.75;100.00;77454.25;4991379;28;19914;-63
2023/05/01 00:34:13;;;;;;;;;;;;;;;-142.75;100.00;77446.34;4991444;28;19988;-64
2023/05/01 00:36:38;;;;;;;;;;;;;;;-142.75;100.00;77440.44;4991869;28;20348;-64
2023/05/01 00:39:03;;;;;;;;;;;;;;;-142.75;100.00;77436.50;4992480;28;19917;-65
2023/05/01 00:41:28;;;;;;;;;;;;;;;-142.75;100.00;77444.38;4991411;28;19914;-64
2023/05/01 00:43:53;;;;;;;;;;;;;;;-142.75;100.00;77436.50;4991528;28;19921;-64
2023/05/01 00:46:20;;;;;;;;;;;;;;;-142.75;100.00;77430.59;4991752;28;19921;-63
2023/05/01 00:48:45;;;;;;;;;;;;;;;-142.75;100.00;77432.56;4992928;28;19914;-64
2023/05/01 00:51:11;;;;;;;;;;;;;;;-142.75;100.00;77414.84;4988238;28;20298;-63
2023/05/01 00:53:37;;;;;;;;;;;;;;;-142.75;100.00;77408.94;4991226;28;19913;-63
2023/05/01 00:56:04;;;;;;;;;;;;;;;-142.75;100.00;77418.78;4991693;28;19913;-64
2023/05/01 00:58:29;;;;;;;;;;;;;;;-142.75;100.00;77410.91;4990067;28;20283;-65
2023/05/01 01:00:54;;;;;;;;;;;;;;;-142.75;100.00;77408.94;4991142;28;19924;-64
2023/05/01 01:03:20;;;;;;;;;;;;;;;-142.75;100.00;77408.94;4990902;28;20310;-64
2023/05/01 01:05:50;;;;;;;;;;;;;;;-142.75;100.00;77410.91;4991307;28;19922;-64
2023/05/01 01:08:15;;;;;;;;;;;;;;;-142.75;100.00;77418.78;4991085;28;20393;-64
2023/05/01 01:10:53;;;;;;;;;;;;;;;-142.75;100.00;77420.75;4990826;28;19921;-64
2023/05/01 01:13:30;;;;;;;;;;;;;;;-142.75;100.00;77420.75;4988426;28;19914;-64
2023/05/01 01:15:58;;;;;;;;;;;;;;;-142.75;100.00;77406.97;4990215;28;19920;-64
2023/05/01 01:18:31;;;;;;;;;;;;;;;-142.75;100.00;77408.94;5004502;28;19925;-64
2023/05/01 01:21:05;;;;;;;;;;;;;;;-142.75;100.00;77405.00;4990854;28;19937;-63
2023/05/01 01:23:49;;;;;;;;;;;;;;;-142.75;100.00;77399.09;4990601;28;19965;-63
2023/05/01 01:26:32;;;;;;;;;;;;;;;-142.75;100.00;77373.50;4991832;28;19913;-64
2023/05/01 01:29:16;;;;;;;;;;;;;;;-142.75;100.00;77393.19;4990530;28;19948;-65
2023/05/01 01:31:51;;;;;;;;;;;;;;;-142.75;100.00;77385.31;4997922;28;19913;-64
2023/05/01 01:34:32;;;;;;;;;;;;;;;-142.75;100.00;77385.31;4996769;28;19933;-64
2023/05/01 01:37:06;;;;;;;;;;;;;;;-142.75;100.00;77377.44;4990415;28;19913;-64
2023/05/01 01:39:41;;;;;;;;;;;;;;;-142.75;100.00;77379.41;5005635;28;19913;-64
2023/05/01 01:42:08;;;;;;;;;;;;;;;-142.75;100.00;77367.59;4989775;28;20012;-64
2023/05/01 01:44:53;;;;;;;;;;;;;;;-142.75;100.00;77371.53;4991758;28;19917;-64
2023/05/01 01:47:20;;;;;;;;;;;;;;;-142.75;100.00;77377.44;5005437;28;20091;-64
2023/05/01 01:49:50;;;;;;;;;;;;;;;-142.75;100.00;77389.25;4988914;28;20406;-64
2023/05/01 01:52:17;;;;;;;;;;;;;;;-142.75;100.00;77381.38;4989594;28;20345;-64
2023/05/01 01:54:47;;;;;;;;;;;;;;;-142.75;100.00;77399.09;4990690;28;19929;-64
2023/05/01 01:57:15;;;;;;;;;;;;;;;-142.75;100.00;77401.06;5005842;28;19914;-64
2023/05/01 01:59:41;;;;;;;;;;;;;;;-142.75;100.00;77405.00;5004058;28;20398;-64
2023/05/01 02:02:07;;;;;;;;;;;;;;;-142.75;100.00;77373.50;4992774;28;19914;-64
2023/05/01 02:04:33;;;;;;;;;;;;;;;-142.75;100.00;77385.31;4992058;28;20346;-64
2023/05/01 02:07:00;;;;;;;;;;;;;;;-142.75;100.00;77369.56;4989391;28;19972;-64
2023/05/01 02:09:28;;;;;;;;;;;;;;;-142.75;100.00;77367.59;4988898;28;20163;-63
2023/05/01 02:11:54;;;;;;;;;;;;;;;-142.75;100.00;77361.69;4987511;28;19924;-63
2023/05/01 02:14:20;;;;;;;;;;;;;;;-142.75;100.00;77369.56;4989109;28;20000;-64
2023/05/01 02:16:46;;;;;;;;;;;;;;;-142.75;100.00;77375.47;4989469;28;19953;-64
2023/05/01 02:19:13;;;;;;;;;;;;;;;-142.75;100.00;77363.66;4988586;28;19999;-65
2023/05/01 02:21:39;;;;;;;;;;;;;;;-142.75;100.00;77371.53;4986775;28;19941;-63
2023/05/01 02:24:06;;;;;;;;;;;;;;;-142.75;100.00;77371.53;4988587;28;19918;-64
2023/05/01 02:26:37;;;;;;;;;;;;;;;-142.75;100.00;77373.50;4988014;28;19913;-64
2023/05/01 02:29:03;;;;;;;;;;;;;;;-142.75;100.00;77389.25;4990956;28;19926;-63
2023/05/01 02:31:29;;;;;;;;;;;;;;;-142.75;100.00;77393.19;5001825;28;19918;-64
2023/05/01 02:33:54;;;;;;;;;;;;;;;-142.75;100.00;77393.19;4988799;28;19922;-64
2023/05/01 02:36:19;;;;;;;;;;;;;;;-142.75;100.00;77383.34;4985257;28;19914;-64
2023/05/01 02:38:46;;;;;;;;;;;;;;;-142.75;100.00;77389.25;4988714;28;19921;-64
2023/05/01 02:41:12;;;;;;;;;;;;;;;-142.75;100.00;77393.19;4988406;28;20439;-65
2023/05/01 02:43:40;;;;;;;;;;;;;;;-142.75;100.00;77375.47;4988112;28;20024;-64
2023/05/01 02:46:06;;;;;;;;;;;;;;;-142.75;100.00;77377.44;4988620;28;19913;-65
2023/05/01 02:48:32;;;;;;;;;;;;;;;-142.75;100.00;77369.56;4988955;28;19913;-64
2023/05/01 02:50:59;;;;;;;;;;;;;;;-142.75;100.00;77389.25;4989124;28;19921;-64
2023/05/01 02:53:25;;;;;;;;;;;;;;;-142.75;100.00;77383.34;4987028;28;19968;-63
2023/05/01 02:55:50;;;;;;;;;;;;;;;-142.75;100.00;77373.50;4985170;28;19917;-64
2023/05/01 02:58:19;;;;;;;;;;;;;;;-142.75;100.00;77371.53;4989175;28;19996;-64
2023/05/01 03:00:44;;;;;;;;;;;;;;;-142.75;100.00;77369.56;4989692;28;19971;-65
2023/05/01 03:03:10;;;;;;;;;;;;;;;-142.75;100.00;77351.84;4987002;28;20004;-64
2023/05/01 03:05:37;;;;;;;;;;;;;;;-142.75;100.00;77349.88;4988558;28;20449;-64
2023/05/01 03:08:03;;;;;;;;;;;;;;;-142.75;100.00;77353.81;4988879;28;20379;-64
2023/05/01 03:10:28;;;;;;;;;;;;;;;-142.75;100.00;77355.78;4988635;28;19925;-64
2023/05/01 03:12:53;;;;;;;;;;;;;;;-142.75;100.00;77345.94;4988666;28;19917;-64
2023/05/01 03:15:18;;;;;;;;;;;;;;;-142.75;100.00;77351.84;4988661;28;19960;-64
2023/05/01 03:17:44;;;;;;;;;;;;;;;-142.75;100.00;77359.72;4991150;28;19913;-62
2023/05/01 03:20:09;;;;;;;;;;;;;;;-142.75;100.00;77351.84;4990204;28;19945;-64
2023/05/01 03:22:37;;;;;;;;;;;;;;;-142.75;100.00;77351.84;4988452;28;20433;-64
2023/05/01 03:25:03;;;;;;;;;;;;;;;-142.75;100.00;77357.75;4989157;28;19960;-64
2023/05/01 03:27:29;;;;;;;;;;;;;;;-142.75;100.00;77353.81;4989253;28;19957;-63
2023/05/01 03:29:54;;;;;;;;;;;;;;;-142.75;100.00;77347.91;4988795;28;19921;-64
2023/05/01 03:32:20;;;;;;;;;;;;;;;-142.75;100.00;77338.06;4988973;28;19980;-63
2023/05/01 03:34:45;;;;;;;;;;;;;;;-142.75;100.00;77355.78;4988738;28;19913;-64
2023/05/01 03:37:14;;;;;;;;;;;;;;;-142.75;100.00;77365.63;4988927;28;19925;-64
2023/05/01 03:39:39;;;;;;;;;;;;;;;-142.75;100.00;77347.91;4987761;28;19937;-64
2023/05/01 03:42:04;;;;;;;;;;;;;;;-142.75;100.00;77343.97;4987979;28;20000;-64
2023/05/01 03:44:29;;;;;;;;;;;;;;;-142.75;100.00;77351.84;4991926;28;20406;-64
2023/05/01 03:46:55;;;;;;;;;;;;;;;-142.75;100.00;77365.63;5001400;28;19968;-64
2023/05/01 03:49:21;;;;;;;;;;;;;;;-142.75;100.00;77375.47;4990830;28;19914;-64
2023/05/01 03:51:46;;;;;;;;;;;;;;;-142.75;100.00;77363.66;4992336;28;20008;-64
2023/05/01 03:54:11;;;;;;;;;;;;;;;-142.75;100.00;77334.13;4992185;28;20395;-64
2023/05/01 03:56:37;;;;;;;;;;;;;;;-142.75;100.00;77322.31;4992188;28;19914;-62
2023/05/01 03:59:02;;;;;;;;;;;;;;;-142.75;100.00;77324.28;4993252;28;19921;-64
2023/05/01 04:01:28;;;;;;;;;;;;;;;-142.75;100.00;77330.19;4994064;28;20470;-63
2023/05/01 04:03:53;;;;;;;;;;;;;;;-142.75;100.00;77312.47;4986880;28;20032;-64
2023/05/01 04:06:18;;;;;;;;;;;;;;;-142.75;100.00;77298.69;4991999;28;20001;-64
2023/05/01 04:08:43;;;;;;;;;;;;;;;-142.75;100.00;77300.66;4992088;28;19940;-64
2023/05/01 04:11:09;;;;;;;;;;;;;;;-142.75;100.00;77292.78;4990400;28;19918;-64
2023/05/01 04:13:37;;;;;;;;;;;;;;;-142.75;100.00;77296.72;4993003;28;20619;-65
2023/05/01 04:16:02;;;;;;;;;;;;;;;-142.75;100.00;77288.84;5002677;28;19921;-64
2023/05/01 04:18:27;;;;;;;;;;;;;;;-142.75;100.00;77292.78;4992156;28;19914;-64
2023/05/01 04:20:53;;;;;;;;;;;;;;;-142.75;100.00;77302.63;4992433;28;19917;-64
2023/05/01 04:23:19;;;;;;;;;;;;;;;-142.75;100.00;77302.63;4989146;28;19918;-63
2023/05/01 04:25:45;;;;;;;;;;;;;;;-142.75;100.00;77298.69;4991837;28;19921;-64
2023/05/01 04:28:11;;;;;;;;;;;;;;;-142.75;100.00;77326.25;5004429;28;19922;-64
2023/05/01 04:30:36;;;;;;;;;;;;;;;-142.75;100.00;77328.22;4991416;28;20024;-63
2023/05/01 04:33:02;;;;;;;;;;;;;;;-142.75;100.00;77318.38;4992842;28;19914;-64
2023/05/01 04:35:28;;;;;;;;;;;;;;;-142.75;100.00;77314.44;4992274;28;19918;-64
2023/05/01 04:37:53;;;;;;;;;;;;;;;-142.75;100.00;77338.06;4992593;28;19993;-64
2023/05/01 04:40:18;;;;;;;;;;;;;;;-142.75;100.00;77318.38;4991678;28;19921;-64
2023/05/01 04:42:43;;;;;;;;;;;;;;;-142.75;100.00;77318.38;4991729;28;19917;-64
2023/05/01 04:45:09;;;;;;;;;;;;;;;-142.75;100.00;77322.31;4990839;28;19917;-63
2023/05/01 04:47:34;;;;;;;;;;;;;;;-142.75;100.00;77300.66;4991220;28;19913;-64
2023/05/01 04:50:00;;;;;;;;;;;;;;;-142.75;100.00;77314.44;4991591;28;19914;-65
2023/05/01 04:52:25;;;;;;;;;;;;;;;-142.75;100.00;77310.50;5004925;28;20395;-63
2023/05/01 04:54:50;;;;;;;;;;;;;;;-142.75;100.00;77316.41;4990476;28;19940;-64
2023/05/01 04:57:15;;;;;;;;;;;;;;;-142.75;100.00;77302.63;4987158;28;19913;-63
2023/05/01 04:59:41;;;;;;;;;;;;;;;-142.75;100.00;77306.56;4991200;28;19914;-64
2023/05/01 05:02:07;;;;;;;;;;;;;;;-142.75;100.00;77302.63;4990139;28;19937;-63
2023/05/01 05:04:33;;;;;;;;;;;;;;;-142.75;100.00;77308.53;4999067;28;19928;-64
2023/05/01 05:06:58;;;;;;;;;;;;;;;-142.75;100.00;77302.63;4991159;28;19914;-64
2023/05/01 05:09:23;;;;;;;;;;;;;;;-142.75;100.00;77302.63;4990978;28;19913;-63
2023/05/01 05:11:49;;;;;;;;;;;;;;;-142.75;100.00;77302.63;4989728;28;19949;-64
2023/05/01 05:14:14;;;;;;;;;;;;;;;-142.75;100.00;77294.75;4988845;28;20064;-65
2023/05/01 05:16:39;;;;;;;;;;;;;;;-142.75;100.00;77290.81;4990040;28;20000;-64
2023/05/01 05:19:04;;;;;;;;;;;;;;;-142.75;100.00;77280.97;4989632;28;19914;-64
2023/05/01 05:21:30;;;;;;;;;;;;;;;-142.75;100.00;77286.88;4990019;28;19920;-65
2023/05/01 05:23:55;;;;;;;;;;;;;;;-142.75;100.00;77280.97;4990117;28;19926;-64
2023/05/01 05:26:21;;;;;;;;;;;;;;;-142.75;100.00;77280.97;4990778;28;19920;-64
2023/05/01 05:28:46;;;;;;;;;;;;;;;-142.75;100.00;77288.84;4990507;28;19913;-64
2023/05/01 05:31:11;;;;;;;;;;;;;;;-142.75;100.00;77282.94;4989349;28;19957;-64
2023/05/01 05:33:37;;;;;;;;;;;;;;;-142.75;100.00;77280.97;4988960;28;19953;-62
2023/05/01 05:36:02;;;;;;;;;;;;;;;-142.75;100.00;77267.19;4991179;28;19914;-64
2023/05/01 05:38:28;;;;;;;;;;;;;;;-142.75;100.00;77263.25;4990872;28;19921;-63
2023/05/01 05:40:53;;;;;;;;;;;;;;;-142.75;100.00;77271.13;4990380;28;19921;-63
2023/05/01 05:43:19;;;;;;;;;;;;;;;-142.75;100.00;77261.28;4990754;28;19917;-63
2023/05/01 05:45:44;;;;;;;;;;;;;;;-142.75;100.00;77259.31;4987458;28;19984;-63
2023/05/01 05:48:09;;;;;;;;;;;;;;;-142.75;100.00;77261.28;4989106;28;20311;-63
2023/05/01 05:50:35;;;;;;;;;;;;;;;-142.75;100.00;77261.28;4990063;28;19921;-63
2023/05/01 05:53:00;;;;;;;;;;;;;;;-142.75;100.00;77223.88;4990766;28;19914;-63
2023/05/01 05:55:26;;;;;;;;;;;;;;;-142.75;100.00;77219.94;4989138;28;19913;-63
2023/05/01 05:57:52;;;;;;;;;;;;;;;-142.75;100.00;77219.94;4991193;28;20406;-64
2023/05/01 06:00:17;;;;;;;;;;;;;;;-142.75;100.00;77235.69;4989680;28;19921;-64
2023/05/01 06:02:42;;;;;;;;;;;;;;;-142.75;100.00;77229.78;4990539;28;19941;-64
2023/05/01 06:05:09;;;;;;;;;;;;;;;-142.75;100.00;77196.31;4988946;28;20361;-64
2023/05/01 06:07:34;;;;;;;;;;;;;;;-142.75;100.00;77202.22;4993328;28;19920;-64
2023/05/01 06:10:03;;;;;;;;;;;;;;;-142.75;100.00;77184.50;4989409;28;19913;-66
2023/05/01 06:12:30;;;;;;;;;;;;;;;-142.75;100.00;77184.50;4991113;28;19917;-64
2023/05/01 06:14:55;;;;;;;;;;;;;;;-142.75;100.00;77178.59;4984117;28;20095;-65
2023/05/01 06:17:20;;;;;;;;;;;;;;;-142.75;100.00;77176.63;4986355;28;19913;-63
2023/05/01 06:19:51;;;;;;;;;;;;;;;-142.75;100.00;77166.78;4986291;28;19953;-64
2023/05/01 06:22:16;;;;;;;;;;;;;;;-142.75;100.00;77166.78;4987277;28;19913;-63
2023/05/01 06:24:41;;;;;;;;;;;;;;;-142.75;100.00;77172.69;4986322;28;19921;-66
2023/05/01 06:27:07;;;;;;;;;;;;;;;-142.75;100.00;77176.63;4988528;28;19913;-64
2023/05/01 06:29:32;;;;;;;;;;;;;;;-142.75;100.00;77174.66;4988135;28;19914;-65
2023/05/01 06:31:57;;;;;;;;;;;;;;;-142.75;100.00;77162.84;4989055;28;19920;-65
2023/05/01 06:34:22;;;;;;;;;;;;;;;-142.75;100.00;77168.75;4983382;28;19917;-65
2023/05/01 06:36:48;;;;;;;;;;;;;;;-142.75;100.00;77168.75;4986590;28;20387;-65
2023/05/01 06:39:13;;;;;;;;;;;;;;;-142.75;100.00;77176.63;4990511;28;19999;-65
2023/05/01 06:41:38;;;;;;;;;;;;;;;-142.75;100.00;77184.50;4990491;28;19913;-65
2023/05/01 06:44:03;;;;;;;;;;;;;;;-142.75;100.00;77164.81;4981274;28;19965;-65
2023/05/01 06:46:29;;;;;;;;;;;;;;;-142.75;100.00;77153.00;4985207;28;19965;-66
2023/05/01 06:48:54;;;;;;;;;;;;;;;-142.75;100.00;77153.00;4987353;28;19985;-66
2023/05/01 06:51:20;;;;;;;;;;;;;;;-142.75;100.00;77168.75;4985644;28;19917;-66
2023/05/01 06:53:45;;;;;;;;;;;;;;;-142.75;100.00;77164.81;4985649;28;19920;-66
2023/05/01 06:56:10;;;;;;;;;;;;;;;-142.75;100.00;77133.31;4981182;28;19914;-65
2023/05/01 06:58:35;;;;;;;;;;;;;;;-142.75;100.00;77151.03;4988817;28;20012;-65
2023/05/01 07:01:00;;;;;;;;;;;;;;;-142.75;100.00;77125.44;4987835;28;19919;-65
2023/05/01 07:03:26;;;;;;;;;;;;;;;-142.75;100.00;77153.00;4985216;28;19918;-65
2023/05/01 07:05:52;;;;;;;;;;;;;;;-142.75;100.00;77119.53;4984550;28;20330;-65
2023/05/01 07:08:17;;;;;;;;;;;;;;;-142.75;100.00;77119.53;4982620;28;20379;-66
2023/05/01 07:10:42;;;;;;;;;;;;;;;-142.75;100.00;77113.63;4995977;28;19960;-65
2023/05/01 07:13:08;;;;;;;;;;;;;;;-142.75;100.00;77099.84;4985485;28;19969;-64
2023/05/01 07:15:33;;;;;;;;;;;;;;;-142.75;100.00;77082.13;4987453;28;19940;-64
2023/05/01 07:18:00;;;;;;;;;;;;;;;-142.75;100.00;77088.03;4988633;28;19929;-64
2023/05/01 07:20:25;;;;;;;;;;;;;;;-142.75;100.00;77070.31;4990294;28;19963;-66
2023/05/01 07:22:50;;;;;;;;;;;;;;;-142.75;100.00;77066.38;4985661;28;20403;-66
2023/05/01 07:25:16;;;;;;;;;;;;;;;-142.75;100.00;77101.81;5003137;28;19956;-66
2023/05/01 07:27:41;;;;;;;;;;;;;;;-142.75;100.00;77084.09;4990781;28;19914;-65
2023/05/01 07:30:06;;;;;;;;;;;;;;;-142.75;100.00;77090.00;4991098;28;19921;-65
2023/05/01 07:32:32;;;;;;;;;;;;;;;-142.75;100.00;77090.00;4989223;28;19913;-65
2023/05/01 07:34:57;;;;;;;;;;;;;;;-142.75;100.00;77093.94;4990362;28;19961;-66
2023/05/01 07:37:23;;;;;;;;;;;;;;;-142.75;100.00;77097.88;4999457;28;20386;-65
2023/05/01 07:39:48;;;;;;;;;;;;;;;-142.75;100.00;77097.88;4979925;28;19918;-66
2023/05/01 07:42:13;;;;;;;;;;;;;;;-142.75;100.00;77097.88;4994088;28;19917;-66
2023/05/01 07:44:38;;;;;;;;;;;;;;;-142.75;100.00;77082.13;4990042;28;19913;-66
2023/05/01 07:47:04;;;;;;;;;;;;;;;-142.75;100.00;77078.19;4990516;28;19916;-65
2023/05/01 07:49:33;;;;;;;;;;;;;;;-142.75;100.00;77070.31;4996892;28;19929;-65
2023/05/01 07:51:59;;;;;;;;;;;;;;;-142.75;100.00;77038.81;4988989;28;19920;-67
2023/05/01 07:54:24;;;;;;;;;;;;;;;-142.75;100.00;77028.97;4989865;28;19914;-66
2023/05/01 07:56:49;;;;;;;;;;;;;;;-142.75;100.00;77023.06;4991604;28;19920;-66
2023/05/01 07:59:14;;;;;;;;;;;;;;;-142.75;100.00;77030.94;4990842;28;19957;-65
2023/05/01 08:01:40;;;;;;;;;;;;;;;-142.75;100.00;77017.16;4990281;28;19913;-65
2023/05/01 08:04:05;;;;;;;;;;;;;;;-142.75;100.00;77011.25;4990122;28;20309;-65
2023/05/01 08:06:31;;;;;;;;;;;;;;;-142.75;100.00;76983.69;4989311;28;19921;-65
2023/05/01 08:08:56;;;;;;;;;;;;;;;-142.75;100.00;77011.25;4988628;28;19913;-65
2023/05/01 08:11:21;;;;;;;;;;;;;;;-142.75;100.00;76967.94;4990059;28;19957;-65
2023/05/01 08:13:47;;;;;;;;;;;;;;;-142.75;100.00;76975.81;4988344;28;20020;-66
2023/05/01 08:16:12;;;;;;;;;;;;;;;-142.75;100.00;76973.84;4989958;28;19913;-65
2023/05/01 08:18:37;;;;;;;;;;;;;;;-142.75;100.00;76962.03;4988389;28;19913;-65
2023/05/01 08:21:02;;;;;;;;;;;;;;;-142.75;100.00;76950.22;4992232;28;19921;-66
2023/05/01 08:23:28;;;;;;;;;;;;;;;-142.75;100.00;76965.97;4989994;28;20367;-67
2023/05/01 08:25:53;;;;;;;;;;;;;;;-142.75;100.00;76971.88;4989163;28;20442;-65
2023/05/01 08:28:21;;;;;;;;;;;;;;;-142.75;100.00;76969.91;4988978;28;19921;-66
2023/05/01 08:30:48;;;;;;;;;;;;;;;-142.75;100.00;76964.00;4999536;28;19920;-66
2023/05/01 08:33:13;;;;;;;;;;;;;;;-142.75;100.00;76952.19;4988163;28;19913;-65
2023/05/01 08:35:38;;;;;;;;;;;;;;;-142.75;100.00;76960.06;4989485;28;20016;-67
2023/05/01 08:38:03;;;;;;;;;;;;;;;-142.75;100.00;76958.09;4988431;28;19929;-66
2023/05/01 08:40:31;;;;;;;;;;;;;;;-142.75;100.00;76956.13;4989144;28;19961;-67
2023/05/01 08:42:57;;;;;;;;;;;;;;;-142.75;100.00;76975.81;5003969;28;20350;-65
2023/05/01 08:45:22;;;;;;;;;;;;;;;-142.75;100.00;76965.97;4989223;28;19914;-65
2023/05/01 08:47:48;;;;;;;;;;;;;;;-142.75;100.00;76956.13;4986261;28;19921;-66
2023/05/01 08:50:15;;;;;;;;;;;;;;;-142.75;100.00;76958.09;4987269;28;19926;-65
2023/05/01 08:52:43;;;;;;;;;;;;;;;-142.75;100.00;76952.19;4982133;28;19945;-66
2023/05/01 08:55:12;;;;;;;;;;;;;;;-142.75;100.00;76956.13;4989108;28;19921;-65
2023/05/01 08:57:38;;;;;;;;;;;;;;;-142.75;100.00;76956.13;4987978;28;19920;-66
2023/05/01 09:00:04;;;;;;;;;;;;;;;-142.75;100.00;76962.03;4974975;28;19917;-67
2023/05/01 09:02:29;;;;;;;;;;;;;;;-142.75;100.00;76954.16;4997161;28;19918;-66
2023/05/01 09:04:55;;;;;;;;;;;;;;;-142.75;100.00;76938.41;4988745;28;19960;-66
2023/05/01 09:07:21;;;;;;;;;;;;;;;-142.75;100.00;76932.50;4987467;28;19917;-66
2023/05/01 09:09:46;;;;;;;;;;;;;;;-142.75;100.00;76924.63;4987529;28;19920;-66
2023/05/01 09:12:17;;;;;;;;;;;;;;;-142.75;100.00;76924.63;4982451;28;19929;-66
2023/05/01 09:14:42;;;;;;;;;;;;;;;-142.75;100.00;76910.84;4981959;28;19913;-66
2023/05/01 09:17:07;;;;;;;;;;;;;;;-142.75;100.00;76902.97;4989941;28;19921;-63
2023/05/01 09:19:32;;;;;;;;;;;;;;;-142.75;100.00;76889.19;4994435;28;19914;-64
2023/05/01 09:21:58;;;;;;;;;;;;;;;-142.75;100.00;76891.16;4989795;28;20335;-65
2023/05/01 09:24:24;;;;;;;;;;;;;;;-142.75;100.00;76879.34;4988617;28;19928;-65
2023/05/01 09:26:50;;;;;;;;;;;;;;;-142.75;100.00;76865.56;4991921;28;20032;-65
2023/05/01 09:29:34;;;;;;;;;;;;;;;-142.75;100.00;76869.50;4989517;28;20439;-66
2023/05/01 09:32:12;;;;;;;;;;;;;;;-142.75;100.00;76879.34;4988735;28;19964;-65
2023/05/01 09:34:37;;;;;;;;;;;;;;;-142.75;100.00;76881.31;4988671;28;19959;-65
2023/05/01 09:37:02;;;;;;;;;;;;;;;-142.75;100.00;76873.44;5002582;28;20016;-65
2023/05/01 09:39:28;;;;;;;;;;;;;;;-142.75;100.00;76873.44;4987078;28;19936;-65
2023/05/01 09:41:53;;;;;;;;;;;;;;;-142.75;100.00;76869.50;4988379;28;20056;-65
2023/05/01 09:44:18;;;;;;;;;;;;;;;-142.75;100.00;76875.41;4988571;28;20287;-65
2023/05/01 09:46:43;;;;;;;;;;;;;;;-142.75;100.00;76867.53;4988020;28;19964;-65
2023/05/01 09:49:09;;;;;;;;;;;;;;;-142.75;100.00;76877.38;4988343;28;19920;-66
2023/05/01 09:51:34;;;;;;;;;;;;;;;-142.75;100.00;76873.44;4987320;28;19928;-65
2023/05/01 09:54:01;;;;;;;;;;;;;;;-142.75;100.00;76893.13;4988177;28;19936;-65
2023/05/01 09:56:26;;;;;;;;;;;;;;;-142.75;100.00;76895.09;4984000;28;19913;-65
2023/05/01 09:58:52;;;;;;;;;;;;;;;-142.75;100.00;76916.75;4988707;28;19967;-65
2023/05/01 10:01:18;;;;;;;;;;;;;;;-142.75;100.00;76918.72;5000385;28;19914;-65
2023/05/01 10:03:44;;;;;;;;;;;;;;;-142.75;100.00;76926.59;4986692;28;19922;-65
2023/05/01 10:06:09;;;;;;;;;;;;;;;-142.75;100.00;76944.31;4988532;28;19918;-65
2023/05/01 10:08:45;;;;;;;;;;;;;;;-142.75;100.00;76960.06;4988167;28;19913;-65
2023/05/01 10:11:10;;;;;;;;;;;;;;;-142.75;100.00;76975.81;4985466;28;19921;-65
2023/05/01 10:13:36;;;;;;;;;;;;;;;-142.75;100.00;76960.06;4988252;28;20346;-65
2023/05/01 10:16:06;;;;;;;;;;;;;;;-142.75;100.00;76983.69;4988357;28;19914;-65
2023/05/01 10:18:32;;;;;;;;;;;;;;;-142.75;100.00;77011.25;4988308;28;19914;-65
2023/05/01 10:20:57;;;;;;;;;;;;;;;-142.75;100.00;77019.13;4986401;28;19949;-65
2023/05/01 10:23:24;;;;;;;;;;;;;;;-142.75;100.00;77032.91;4985131;28;20413;-66
2023/05/01 10:25:51;;;;;;;;;;;;;;;-142.75;100.00;77038.81;4988133;28;19977;-65
2023/05/01 10:28:17;;;;;;;;;;;;;;;-142.75;100.00;77046.69;4987994;28;20407;-65
2023/05/01 10:30:44;;;;;;;;;;;;;;;-142.75;100.00;77062.44;4987683;28;19914;-65
2023/05/01 10:33:11;;;;;;;;;;;;;;;-142.75;100.00;77070.31;4986618;28;19936;-65
2023/05/01 10:35:39;;;;;;;;;;;;;;;-142.75;100.00;77062.44;4986522;28;20326;-65
2023/05/01 10:38:05;;;;;;;;;;;;;;;-142.75;100.00;77056.53;4987970;28;19914;-66
2023/05/01 10:40:47;;;;;;;;;;;;;;;-142.75;100.00;77058.50;4986732;28;19967;-66
2023/05/01 10:43:13;;;;;;;;;;;;;;;-142.75;100.00;77058.50;4987925;28;19917;-65
2023/05/01 10:45:38;;;;;;;;;;;;;;;-142.75;100.00;77060.47;4987456;28;20315;-65
2023/05/01 10:48:03;;;;;;;;;;;;;;;-142.75;100.00;77042.75;4987812;28;19951;-65
2023/05/01 10:50:28;;;;;;;;;;;;;;;-142.75;100.00;77050.63;4987731;28;19914;-65
2023/05/01 10:53:13;;;;;;;;;;;;;;;-142.75;100.00;77062.44;4991593;28;20350;-65
2023/05/01 10:55:40;;;;;;;;;;;;;;;-142.75;100.00;77042.75;4990481;28;19985;-65
2023/05/01 10:58:05;;;;;;;;;;;;;;;-142.75;100.00;77034.88;4990584;28;20026;-65
2023/05/01 11:00:32;;;;;;;;;;;;;;;-142.75;100.00;77034.88;4992122;28;20000;-65
2023/05/01 11:03:16;;;;;;;;;;;;;;;-142.75;100.00;77038.81;5001302;28;19924;-65
2023/05/01 11:06:02;;;;;;;;;;;;;;;-142.75;100.00;77025.03;4989982;28;19914;-65
2023/05/01 11:08:28;;;;;;;;;;;;;;;-142.75;100.00;77046.69;4998746;28;19984;-65
2023/05/01 11:10:53;;;;;;;;;;;;;;;-142.75;100.00;77034.88;4990195;28;20391;-65
2023/05/01 11:13:38;;;;;;;;;;;;;;;-142.75;100.00;77042.75;4987797;28;19918;-65
2023/05/01 11:16:22;;;;;;;;;;;;;;;-142.75;100.00;77025.03;4991414;28;20009;-65
2023/05/01 11:18:48;;;;;;;;;;;;;;;-142.75;100.00;77015.19;4990952;28;19914;-66
2023/05/01 11:21:14;;;;;;;;;;;;;;;-142.75;100.00;76991.56;4992502;28;19921;-65
2023/05/01 11:23:45;;;;;;;;;;;;;;;-142.75;100.00;76991.56;4992982;28;19917;-64
2023/05/01 11:26:11;;;;;;;;;;;;;;;-142.75;100.00;76991.56;4993179;28;20356;-64
2023/05/01 11:28:37;;;;;;;;;;;;;;;-142.75;100.00;76979.75;4992949;28;20291;-64
2023/05/01 11:31:02;;;;;;;;;;;;;;;-142.75;100.00;76971.88;4990868;28;19914;-65
2023/05/01 11:33:28;;;;;;;;;;;;;;;-142.75;100.00;76960.06;4990655;28;20409;-65
2023/05/01 11:35:57;;;;;;;;;;;;;;;-142.75;100.00;76952.19;4990979;28;19917;-65
2023/05/01 11:38:23;;;;;;;;;;;;;;;-142.75;100.00;76975.81;4989454;28;19921;-65
2023/05/01 11:40:54;;;;;;;;;;;;;;;-142.75;100.00;76952.19;4991111;28;20394;-66
2023/05/01 11:43:19;;;;;;;;;;;;;;;-142.75;100.00;76918.72;4994425;28;19918;-66
2023/05/01 11:45:50;;;;;;;;;;;;;;;-142.75;100.00;76899.03;4989914;28;19921;-66
2023/05/01 11:48:15;;;;;;;;;;;;;;;-142.75;100.00;76914.78;4990884;28;19918;-65
2023/05/01 11:50:41;;;;;;;;;;;;;;;-142.75;100.00;76897.06;4990397;28;20320;-66
2023/05/01 11:53:17;;;;;;;;;;;;;;;-142.75;100.00;76826.19;4988571;28;19914;-65
2023/05/01 11:55:43;;;;;;;;;;;;;;;-142.75;100.00;76790.78;4990355;28;19937;-66
2023/05/01 11:58:08;;;;;;;;;;;;;;;-142.75;100.00;76755.34;4990423;28;20375;-65
2023/05/01 12:00:36;;;;;;;;;;;;;;;-142.75;100.00;76775.03;4990354;28;20000;-66
2023/05/01 12:03:06;;;;;;;;;;;;;;;-142.75;100.00;76769.13;4986697;28;19980;-66
2023/05/01 12:05:33;;;;;;;;;;;;;;;-142.75;100.00;76751.41;4988686;28;19920;-66
2023/05/01 12:08:17;;;;;;;;;;;;;;;-142.75;100.00;76737.63;4989895;28;20004;-66
2023/05/01 12:10:43;;;;;;;;;;;;;;;-142.75;100.00;76729.75;4984507;28;19997;-66
2023/05/01 12:13:13;;;;;;;;;;;;;;;-142.75;100.00;76715.97;5000851;28;20012;-66
2023/05/01 12:15:39;;;;;;;;;;;;;;;-142.75;100.00;76680.53;4992881;28;20009;-66